createdAt,value
2017-10-19T03:30:12.745Z,97.70
2017-10-19T03:32:40.325Z,97.70
2017-10-19T03:35:07.906Z,97.60
2017-10-19T03:37:35.512Z,97.70
2017-10-19T03:40:03.853Z,98.80
2017-10-19T03:42:31.425Z,98.90
2017-10-19T03:44:59.822Z,98.50
2017-10-19T03:47:28.161Z,98.30
2017-10-19T03:49:56.546Z,99.80
2017-10-19T03:52:24.117Z,99.80
2017-10-19T03:54:51.706Z,98.10
2017-10-19T03:57:19.319Z,97.40
2017-10-19T03:59:46.893Z,97.30
2017-10-19T04:02:15.247Z,98.00
2017-10-19T04:04:42.878Z,97.90
2017-10-19T04:07:10.454Z,97.50
2017-10-19T04:09:38.030Z,97.40
2017-10-19T04:12:05.649Z,97.70
2017-10-19T04:14:33.281Z,97.70
2017-10-19T04:17:01.665Z,99.90
2017-10-19T04:19:30.058Z,98.50
2017-10-19T04:21:57.698Z,98.50
2017-10-19T04:24:26.094Z,98.30
2017-10-19T04:26:53.670Z,98.30
2017-10-19T04:29:21.250Z,98.00
2017-10-19T04:31:48.874Z,97.70
2017-10-19T04:34:16.446Z,97.50
2017-10-19T04:36:44.046Z,98.00
2017-10-19T04:39:11.721Z,97.50
2017-10-19T04:41:39.385Z,98.00
2017-10-19T04:44:07.734Z,97.90
2017-10-19T04:46:35.338Z,97.90
2017-10-19T04:49:02.993Z,98.40
2017-10-19T04:51:31.390Z,98.20
2017-10-19T04:53:59.018Z,98.20
2017-10-19T04:56:27.401Z,97.20
2017-10-19T04:58:55.766Z,97.50
2017-10-19T05:01:23.379Z,97.50
2017-10-19T05:03:51.049Z,97.00
2017-10-19T05:06:18.629Z,97.30
2017-10-19T05:08:46.233Z,97.40
2017-10-19T05:11:13.845Z,97.50
2017-10-19T05:13:41.438Z,97.90
2017-10-19T05:16:09.825Z,98.30
2017-10-19T05:18:37.413Z,98.30
2017-10-19T05:21:04.985Z,97.80
2017-10-19T05:23:32.693Z,97.70
2017-10-19T05:26:00.275Z,97.70
2017-10-19T05:28:27.906Z,97.50
2017-10-19T05:30:56.254Z,97.90
2017-10-19T05:33:23.833Z,97.80
2017-10-19T05:35:51.442Z,97.90
2017-10-19T05:38:19.875Z,98.40
2017-10-19T05:40:48.289Z,98.00
2017-10-19T05:43:15.865Z,98.00
2017-10-19T05:45:43.445Z,98.30
2017-10-19T05:48:11.045Z,99.90
2017-10-19T05:50:39.385Z,98.00
2017-10-19T05:53:07.029Z,98.00
2017-10-19T05:55:34.603Z,98.20
2017-10-19T05:58:02.174Z,99.40
2017-10-19T06:00:29.802Z,99.10
2017-10-19T06:02:57.377Z,99.50
2017-10-19T06:05:24.958Z,97.90
2017-10-19T06:07:53.325Z,97.30
2017-10-19T06:10:20.903Z,97.20
2017-10-19T06:12:49.299Z,96.70
2017-10-19T06:15:16.877Z,97.00
2017-10-19T06:17:44.459Z,96.90
2017-10-19T06:20:12.095Z,96.90
2017-10-19T06:22:39.675Z,96.90
2017-10-19T06:25:07.258Z,97.00
2017-10-19T06:27:34.892Z,97.60
2017-10-19T06:30:02.482Z,97.90
2017-10-19T06:32:30.067Z,98.00
2017-10-19T06:34:57.674Z,98.40
2017-10-19T06:37:25.250Z,99.90
2017-10-19T06:39:52.867Z,99.20
2017-10-19T06:42:20.446Z,98.60
2017-10-19T06:44:48.022Z,98.00
2017-10-19T06:47:15.634Z,97.90
2017-10-19T06:49:43.214Z,98.10
2017-10-19T06:52:10.791Z,98.30
2017-10-19T06:54:38.394Z,98.30
2017-10-19T06:57:05.975Z,98.50
2017-10-19T06:59:33.573Z,99.00
2017-10-19T07:02:01.145Z,99.30
2017-10-19T07:04:28.774Z,99.10
2017-10-19T07:06:56.354Z,99.30
2017-10-19T07:09:23.930Z,99.30
2017-10-19T07:11:52.294Z,99.90
2017-10-19T07:14:19.874Z,99.90
2017-10-19T07:16:48.213Z,98.90
2017-10-19T07:19:15.817Z,98.80
2017-10-19T07:21:43.398Z,99.10
2017-10-19T07:24:10.982Z,99.30
2017-10-19T07:26:38.586Z,99.40
2017-10-19T07:29:06.937Z,99.60
2017-10-19T07:31:34.533Z,99.60
2017-10-19T07:34:02.110Z,99.60
2017-10-19T07:36:29.715Z,99.70
2017-10-19T07:38:57.302Z,99.80
2017-10-19T07:41:25.652Z,99.90
2017-10-19T07:43:53.257Z,99.90
2017-10-19T07:46:20.838Z,99.90
2017-10-19T07:48:48.423Z,99.90
2017-10-19T07:51:16.026Z,99.90
2017-10-19T07:53:43.610Z,99.90
2017-10-19T07:56:11.218Z,99.90
2017-10-19T07:58:39.581Z,99.20
2017-10-19T08:01:07.166Z,99.20
2017-10-19T08:03:35.549Z,98.70
2017-10-19T08:06:03.135Z,98.70
2017-10-19T08:08:30.722Z,99.40
2017-10-19T08:10:58.362Z,98.70
2017-10-19T08:13:25.946Z,98.20
2017-10-19T08:15:53.531Z,98.40
2017-10-19T08:18:21.905Z,98.20
2017-10-19T08:20:50.254Z,97.00
2017-10-19T08:23:17.886Z,97.00
2017-10-19T08:25:45.461Z,95.80
2017-10-19T08:28:13.042Z,95.70
2017-10-19T08:30:40.669Z,95.30
2017-10-19T08:33:08.249Z,95.10
2017-10-19T08:35:35.836Z,94.80
2017-10-19T08:38:04.215Z,94.40
2017-10-19T08:40:32.565Z,94.30
2017-10-19T08:43:00.193Z,94.30
2017-10-19T08:45:27.778Z,94.00
2017-10-19T08:47:55.390Z,93.30
2017-10-19T08:50:23.015Z,91.90
2017-10-19T08:52:51.370Z,92.00
2017-10-19T08:55:18.973Z,91.80
2017-10-19T08:57:46.611Z,93.10
2017-10-19T09:00:14.961Z,92.30
2017-10-19T09:02:42.545Z,92.30
2017-10-19T09:05:10.933Z,92.10
2017-10-19T09:07:39.287Z,92.20
2017-10-19T09:10:06.877Z,92.10
2017-10-19T09:12:34.605Z,92.20
2017-10-19T09:15:02.190Z,92.00
2017-10-19T09:17:30.550Z,91.40
2017-10-19T09:19:58.194Z,91.40
2017-10-19T09:22:25.820Z,91.10
2017-10-19T09:24:53.406Z,90.90
2017-10-19T09:27:20.991Z,90.90
2017-10-19T09:29:49.382Z,91.50
2017-10-19T09:32:17.725Z,90.40
2017-10-19T09:34:45.314Z,90.40
2017-10-19T09:37:13.721Z,90.70
2017-10-19T09:39:41.310Z,90.70
2017-10-19T09:42:08.895Z,90.00
2017-10-19T09:44:36.532Z,90.00
2017-10-19T09:47:04.119Z,90.00
2017-10-19T09:49:31.698Z,90.60
2017-10-19T09:52:00.090Z,88.90
2017-10-19T09:54:27.678Z,88.90
2017-10-19T09:56:55.262Z,89.30
2017-10-19T09:59:22.870Z,91.10
2017-10-19T10:01:50.446Z,89.60
2017-10-19T10:04:18.073Z,88.90
2017-10-19T10:06:46.421Z,89.10
2017-10-19T10:09:14.015Z,89.10
2017-10-19T10:11:41.712Z,87.10
2017-10-19T10:14:09.294Z,88.70
2017-10-19T10:16:36.890Z,86.50
2017-10-19T10:19:04.530Z,86.80
2017-10-19T10:21:32.873Z,87.90
2017-10-19T10:24:00.462Z,88.00
2017-10-19T10:26:28.079Z,88.00
2017-10-19T10:28:55.654Z,83.80
2017-10-19T10:31:23.238Z,83.30
2017-10-19T10:33:50.846Z,83.00
2017-10-19T10:36:18.433Z,82.30
2017-10-19T10:38:46.022Z,87.40
2017-10-19T10:41:14.389Z,82.80
2017-10-19T10:43:41.965Z,82.60
2017-10-19T10:46:10.340Z,81.40
2017-10-19T10:48:38.693Z,80.00
2017-10-19T10:51:06.275Z,79.90
2017-10-19T10:53:34.673Z,77.50
2017-10-19T10:56:02.250Z,77.50
2017-10-19T10:58:29.831Z,80.40
2017-10-19T11:00:57.466Z,77.00
2017-10-19T11:03:25.053Z,78.60
2017-10-19T11:05:52.630Z,78.70
2017-10-19T11:08:20.262Z,77.70
2017-10-19T11:10:47.854Z,75.70
2017-10-19T11:13:15.438Z,74.50
2017-10-19T11:15:43.074Z,75.40
2017-10-19T11:18:11.426Z,76.00
2017-10-19T11:20:39.010Z,75.30
2017-10-19T11:23:07.406Z,81.80
2017-10-19T11:25:34.990Z,81.80
2017-10-19T11:28:02.598Z,83.90
2017-10-19T11:30:30.197Z,77.40
2017-10-19T11:32:57.779Z,78.00
2017-10-19T11:35:25.417Z,85.30
2017-10-19T11:37:52.998Z,74.70
2017-10-19T11:40:20.575Z,72.80
2017-10-19T11:42:48.205Z,71.00
2017-10-19T11:45:15.795Z,78.20
2017-10-19T11:47:43.386Z,76.50
2017-10-19T11:50:11.790Z,69.60
2017-10-19T11:52:39.370Z,69.60
2017-10-19T11:55:06.945Z,64.30
2017-10-19T11:57:34.565Z,68.70
2017-10-19T12:00:02.154Z,66.00
2017-10-19T12:02:29.742Z,64.20
2017-10-19T12:04:57.377Z,63.00
2017-10-19T12:07:24.962Z,67.30
2017-10-19T12:09:52.542Z,64.10
2017-10-19T12:12:20.914Z,63.60
2017-10-19T12:14:48.519Z,63.40
2017-10-19T12:17:16.147Z,64.30
2017-10-19T12:19:43.725Z,66.10
2017-10-19T12:22:11.302Z,65.40
2017-10-19T12:24:39.786Z,66.20
2017-10-19T12:27:07.375Z,66.00
2017-10-19T12:29:34.977Z,61.80
2017-10-19T12:32:02.555Z,60.40
2017-10-19T12:34:30.277Z,75.90
2017-10-19T12:36:58.623Z,71.10
2017-10-19T12:39:26.206Z,71.20
2017-10-19T12:41:54.602Z,67.90
2017-10-19T12:44:22.183Z,67.90
2017-10-19T12:46:49.770Z,66.40
2017-10-19T12:49:17.382Z,64.80
2017-10-19T12:51:44.962Z,64.40
2017-10-19T12:54:12.594Z,66.70
2017-10-19T12:56:40.175Z,67.90
2017-10-19T12:59:07.757Z,70.90
2017-10-19T13:01:35.378Z,74.10
2017-10-19T13:04:02.957Z,70.10
2017-10-19T13:06:30.543Z,75.60
2017-10-19T13:08:58.154Z,70.40
2017-10-19T13:11:25.737Z,70.30
2017-10-19T13:13:53.366Z,66.60
2017-10-19T13:16:20.942Z,68.50
2017-10-19T13:18:48.517Z,68.40
2017-10-19T13:21:16.138Z,67.70
2017-10-19T13:23:43.718Z,65.10
2017-10-19T13:26:11.297Z,61.60
2017-10-19T13:28:38.915Z,58.50
2017-10-19T13:31:06.506Z,67.30
2017-10-19T13:33:34.090Z,59.10
2017-10-19T13:36:01.718Z,59.60
2017-10-19T13:38:29.293Z,57.90
2017-10-19T13:40:56.874Z,57.70
2017-10-19T13:43:24.473Z,56.20
2017-10-19T13:45:52.055Z,60.70
2017-10-19T13:48:19.703Z,59.40
2017-10-19T13:50:47.290Z,59.20
2017-10-19T13:53:14.878Z,63.30
2017-10-19T13:55:42.477Z,59.60
2017-10-19T13:58:10.056Z,58.70
2017-10-19T14:00:37.653Z,62.20
2017-10-19T14:03:05.256Z,66.10
2017-10-19T14:05:33.858Z,62.60
2017-10-19T14:08:01.458Z,62.60
2017-10-19T14:10:29.806Z,64.40
2017-10-19T14:12:57.442Z,63.70
2017-10-19T14:15:25.023Z,65.70
2017-10-19T14:17:52.606Z,65.40
2017-10-19T14:20:20.214Z,64.50
2017-10-19T14:22:47.807Z,64.20
2017-10-19T14:25:15.394Z,65.30
2017-10-19T14:27:43.789Z,63.70
2017-10-19T14:30:11.375Z,63.70
2017-10-19T14:32:38.962Z,67.50
2017-10-19T14:35:06.600Z,71.10
2017-10-19T14:37:34.178Z,69.80
2017-10-19T14:40:01.767Z,65.50
2017-10-19T14:42:30.167Z,66.20
2017-10-19T14:44:57.751Z,66.20
2017-10-19T14:47:25.334Z,65.70
2017-10-19T14:49:52.994Z,67.90
2017-10-19T14:52:20.726Z,70.50
2017-10-19T14:54:48.309Z,76.10
2017-10-19T14:57:15.909Z,71.00
2017-10-19T14:59:44.262Z,81.00
2017-10-19T15:02:12.002Z,80.80
2017-10-19T15:04:39.629Z,78.00
2017-10-19T15:07:07.214Z,76.60
2017-10-19T15:09:34.798Z,79.10
2017-10-19T15:12:02.401Z,78.30
2017-10-19T15:14:29.977Z,80.90
2017-10-19T15:16:57.599Z,80.80
2017-10-19T15:19:25.946Z,83.60
2017-10-19T15:21:53.522Z,83.20
2017-10-19T15:24:21.901Z,87.80
2017-10-19T15:26:50.246Z,89.60
2017-10-19T15:29:17.834Z,89.30
2017-10-19T15:31:45.541Z,87.30
2017-10-19T15:34:13.123Z,82.40
2017-10-19T15:36:40.702Z,89.60
2017-10-19T15:39:08.325Z,89.60
2017-10-19T15:41:35.914Z,90.80
2017-10-19T15:44:03.498Z,91.10
2017-10-19T15:46:31.878Z,91.90
2017-10-19T15:49:00.225Z,93.70
2017-10-19T15:51:27.815Z,93.70
2017-10-19T15:53:56.186Z,94.40
2017-10-19T15:56:24.584Z,94.00
2017-10-19T15:58:52.194Z,93.90
2017-10-19T16:01:19.778Z,94.50
2017-10-19T16:03:48.177Z,95.40
2017-10-19T16:06:15.761Z,95.70
2017-10-19T16:08:43.346Z,94.60
2017-10-19T16:11:10.994Z,95.60
2017-10-19T16:13:38.590Z,96.60
2017-10-19T16:16:06.945Z,95.70
2017-10-19T16:18:34.563Z,96.00
2017-10-19T16:21:02.155Z,95.90
2017-10-19T16:23:29.746Z,96.90
2017-10-19T16:25:58.122Z,96.00
2017-10-19T16:28:25.701Z,96.00
2017-10-19T16:30:53.317Z,96.90
2017-10-19T16:33:20.914Z,96.00
2017-10-19T16:35:48.507Z,97.50
2017-10-19T16:38:16.155Z,98.40
2017-10-19T16:40:43.749Z,97.60
2017-10-19T16:43:11.347Z,98.40
2017-10-19T16:45:39.752Z,97.20
2017-10-19T16:48:07.353Z,97.20
2017-10-19T16:50:34.946Z,96.80
2017-10-19T16:53:03.358Z,96.70
2017-10-19T16:55:30.947Z,96.70
2017-10-19T16:57:58.525Z,98.10
2017-10-19T17:00:26.153Z,97.10
2017-10-19T17:02:53.743Z,98.80
2017-10-19T17:05:21.330Z,98.40
2017-10-19T17:07:48.945Z,96.80
2017-10-19T17:10:16.528Z,96.80
2017-10-19T17:12:44.907Z,96.90
2017-10-19T17:15:13.258Z,96.80
2017-10-19T17:17:40.853Z,96.80
2017-10-19T17:20:09.237Z,96.90
2017-10-19T17:22:36.822Z,96.90
2017-10-19T17:25:04.412Z,97.10
2017-10-19T17:27:32.022Z,97.10
2017-10-19T17:29:59.614Z,97.00
2017-10-19T17:32:27.969Z,96.80
2017-10-19T17:34:55.608Z,96.80
2017-10-19T17:37:23.966Z,97.90
2017-10-19T17:39:52.327Z,97.50
2017-10-19T17:42:19.960Z,97.40
2017-10-19T17:44:47.547Z,96.90
2017-10-19T17:47:15.130Z,97.00
2017-10-19T17:49:43.530Z,97.00
2017-10-19T17:52:11.114Z,96.90
2017-10-19T17:54:38.705Z,97.10
2017-10-19T17:57:06.314Z,98.70
2017-10-19T17:59:33.899Z,97.60
2017-10-19T18:02:01.490Z,97.30
2017-10-19T18:04:29.130Z,97.50
2017-10-19T18:06:56.714Z,97.70
2017-10-19T18:09:25.070Z,97.10
2017-10-19T18:11:52.718Z,97.10
2017-10-19T18:14:20.307Z,97.00
2017-10-19T18:16:48.663Z,97.80
2017-10-19T18:19:16.277Z,97.80
2017-10-19T18:21:43.861Z,97.80
2017-10-19T18:24:11.474Z,97.80
2017-10-19T18:26:39.833Z,97.80
2017-10-19T18:29:07.425Z,97.80
2017-10-19T18:31:35.102Z,97.90
2017-10-19T18:34:02.687Z,98.00
2017-10-19T18:36:30.274Z,98.00
2017-10-19T18:38:57.896Z,97.90
2017-10-19T18:41:25.488Z,97.90
2017-10-19T18:43:53.847Z,98.40
2017-10-19T18:46:21.463Z,98.40
2017-10-19T18:48:49.059Z,98.50
2017-10-19T18:51:16.647Z,98.90
2017-10-19T18:53:44.266Z,98.20
2017-10-19T18:56:11.853Z,98.50
2017-10-19T18:58:39.475Z,98.30
2017-10-19T19:01:07.091Z,98.10
2017-10-19T19:03:35.598Z,98.90
2017-10-19T19:06:03.206Z,98.90
2017-10-19T19:08:30.854Z,98.80
2017-10-19T19:10:58.450Z,98.10
2017-10-19T19:13:26.881Z,99.00
2017-10-19T19:15:54.490Z,99.00
2017-10-19T19:18:22.837Z,98.40
2017-10-19T19:20:50.423Z,98.50
2017-10-19T19:23:18.818Z,98.10
2017-10-19T19:25:46.401Z,98.00
2017-10-19T19:28:13.991Z,97.50
2017-10-19T19:30:41.599Z,97.40
2017-10-19T19:33:09.189Z,97.60
2017-10-19T19:35:36.797Z,97.40
2017-10-19T19:38:05.147Z,98.00
2017-10-19T19:40:32.737Z,97.60
2017-10-19T19:43:01.112Z,97.80
2017-10-19T19:45:29.462Z,98.40
2017-10-19T19:47:57.040Z,98.40
2017-10-19T19:50:25.434Z,97.70
2017-10-19T19:52:53.782Z,97.60
2017-10-19T19:55:21.365Z,97.70
2017-10-19T19:57:49.729Z,98.00
2017-10-19T20:00:18.139Z,98.00
2017-10-19T20:02:45.722Z,97.90
2017-10-19T20:05:13.346Z,98.40
2017-10-19T20:07:40.930Z,98.30
2017-10-19T20:10:08.513Z,98.20
2017-10-19T20:12:36.118Z,98.30
2017-10-19T20:15:04.498Z,99.40
2017-10-19T20:17:32.087Z,99.30
2017-10-19T20:19:59.673Z,99.10
2017-10-19T20:22:27.286Z,99.80
2017-10-19T20:24:54.861Z,98.70
2017-10-19T20:27:22.462Z,98.60
2017-10-19T20:29:50.046Z,98.20
2017-10-19T20:32:18.427Z,97.90
2017-10-19T20:34:46.038Z,97.80
2017-10-19T20:37:13.620Z,97.60
2017-10-19T20:39:41.214Z,97.50
2017-10-19T20:42:08.875Z,98.80
2017-10-19T20:44:36.463Z,97.70
2017-10-19T20:47:04.106Z,98.50
2017-10-19T20:49:31.722Z,98.30
2017-10-19T20:51:59.310Z,97.70
2017-10-19T20:54:26.898Z,98.20
2017-10-19T20:56:54.535Z,97.30
2017-10-19T20:59:22.130Z,97.60
2017-10-19T21:01:49.719Z,97.90
2017-10-19T21:04:17.354Z,97.80
2017-10-19T21:06:44.939Z,98.00
2017-10-19T21:09:13.325Z,98.40
2017-10-19T21:11:41.702Z,98.10
2017-10-19T21:14:10.054Z,98.00
2017-10-19T21:16:37.666Z,98.00
2017-10-19T21:19:05.262Z,98.40
2017-10-19T21:21:32.886Z,98.30
2017-10-19T21:24:00.469Z,98.10
2017-10-19T21:26:28.059Z,98.50
2017-10-19T21:28:55.666Z,98.80
2017-10-19T21:31:23.250Z,98.70
2017-10-19T21:33:50.881Z,98.70
2017-10-19T21:36:18.468Z,98.60
2017-10-19T21:38:46.066Z,98.70
2017-10-19T21:41:14.437Z,99.30
2017-10-19T21:43:42.030Z,99.30
2017-10-19T21:46:09.618Z,99.60
2017-10-19T21:48:37.226Z,99.70
2017-10-19T21:51:05.574Z,99.80
2017-10-19T21:53:33.210Z,99.70
2017-10-19T21:56:00.798Z,99.90
2017-10-19T21:58:28.390Z,99.90
2017-10-19T22:00:56.031Z,99.90
2017-10-19T22:03:24.390Z,99.90
2017-10-19T22:05:51.986Z,99.90
2017-10-19T22:08:19.599Z,99.90
2017-10-19T22:10:48.435Z,99.90
2017-10-19T22:13:16.058Z,99.90
2017-10-19T22:15:43.637Z,99.90
2017-10-19T22:18:11.990Z,99.90
2017-10-19T22:20:39.633Z,99.90
2017-10-19T22:23:07.222Z,99.30
2017-10-19T22:25:34.805Z,99.30
2017-10-19T22:28:03.181Z,99.20
